Tiempo atmosférico en la estación meteorológica de Osa De La Vega, Cuenca (763 m.)



Fecha
DESCASC
Temp. máxima en grados centígrados (hora)
DESCASC
Temp. mínima en grados centígrados (hora)
DESCASC
Temp. media en grados centígrados
DESCASC
Racha de viento máxima en m/sg (hora)
DESCASC
Velocidad máxima media en intervalos de 10 minutos(hora)
DESCASC
Precipitaciones diarias en mm
DESCASC
Precipitaciones de 00:00 a 06:00 en mm
DESCASC
Precipitaciones de 06:00 a 12:00 en mm
DESCASC
Precipitaciones de 12:00 a 18:00 en mm
DESCASC
Precipitaciones de 18:00 a 24:00 en mm
DESCASC
05-04-2020 20.7 (18:00) 7.6 (08:00) 14.2 9.17 (00:10) 5.28 (03:50) 0 0 0 0 0
04-04-2020 16.4 (16:50) 4.3 (02:20) 10.3 15 (14:30) 9.72 (14:30) 0 0 0 0 0
03-04-2020 16.8 (19:30) 1.6 (07:50) 9.2 4.72 (14:40) 2.5 (15:30) 0 0 0 0 0
02-04-2020 15.5 (17:10) 1.1 (00:00) 8.3 9.44 (17:20) 5.56 (17:20) 3.6 0 0 0 3.6
01-04-2020 14.2 (19:00) 5.3 (00:00) 9.8 9.44 (00:10) 5.28 (00:10) 17.4 17.4 0 0 0
31-03-2020 11.9 (17:10) 3.8 (00:00) 7.8 14.17 (11:30) 9.17 (11:30) 23.6 1.6 3 1.4 17.6
30-03-2020 13.2 (15:10) 4.2 (00:00) 8.7 9.72 (23:40) 5.56 (23:50) 10 0 0 2.2 7.8
29-03-2020 17.5 (18:20) 0.2 (00:00) 8.9 5.83 (14:00) 2.78 (14:00) 0 0 0 0 0
28-03-2020 15 (18:10) 0 (00:00) 7.5 6.67 (15:50) 3.61 (16:20) 0 0 0 0 0
27-03-2020 6.5 (16:10) 2.9 (00:00) 4.7 9.44 (06:20) 5.28 (06:20) 4.4 0 2.8 0.2 1.4
26-03-2020 14.3 (17:10) 0.6 (00:00) 7.5 8.89 (12:30) 5 (12:40) 0.2 0 0.2 0 0
25-03-2020 14.8 (17:50) 1.6 (00:00) 8.2 6.94 (20:30) 4.17 (22:00) 0.6 0 0 0 0.6
24-03-2020 12.7 (13:20) 4.9 (00:00) 8.8 13.89 (13:10) 7.22 (13:10) 0.2 0 0.2 0 0
23-03-2020 13.8 (13:50) 7.1 (00:00) 10.5 13.33 (18:20) 8.06 (18:20) 3.2 1 0.4 0.6 1.2
22-03-2020 12.5 (13:30) 3.2 (06:20) 7.9 8.33 (12:20) 5.83 (13:40) 1.8 0 0 1 0.8
21-03-2020 9.4 (10:40) 4.8 (00:00) 7.1 9.72 (10:00) 5.83 (10:00) 1.6 0 0 0.6 1
20-03-2020 12.5 (14:40) 6.2 (00:00) 9.3 11.67 (17:10) 6.67 (15:30) 0 0 0 0 0
19-03-2020 14.5 (15:00) 5.4 (00:00) 10 11.11 (13:30) 6.39 (11:50) 0 0 0 0 0
18-03-2020 15 (14:20) 7.1 (00:00) 11 9.17 (07:00) 5.56 (11:40) 0 0 0 0 0
17-03-2020 15.4 (15:30) 1.7 (00:00) 8.5 13.06 (13:00) 8.06 (13:10) 0 0 0 0 0
16-03-2020 10.5 (00:00) 2.2 (00:00) 6.4 10.28 (05:50) 6.11 (04:50) 11.2 9.6 1.6 0 0
15-03-2020 20.5 (16:30) 7.5 (00:00) 14 10.83 (18:00) 5.83 (18:10) 0.2 0 0 0 0.2
14-03-2020 22.7 (17:00) 5.7 (00:00) 14.2 5 (14:00) 2.5 (17:50) 0 0 0 0 0
13-03-2020 22.6 (16:10) 8.5 (07:40) 15.6 8.06 (13:20) 4.44 (17:20) 0 0 0 0 0
12-03-2020 27 (15:40) 6.2 (00:00) 16.6 6.39 (15:40) 3.61 (13:30) 0 0 0 0 0
11-03-2020 26 (17:20) 4.1 (00:00) 15 3.89 (16:00) 2.22 (16:10) 0 0 0 0 0
10-03-2020 21.8 (17:40) 1.9 (00:00) 11.8 5.83 (15:20) 3.06 (17:30) 0 0 0 0 0

Gráficas

Temp. máximas Temp. mínimas Temp. medias Precipitaciones Rachas de viento máximas Velocidades máximas media en intervalos de 10 minutos

Datos horarios

Fecha y hora oficial Temperatura (ºC) Velocidad del viento (km/h) Dirección del viento Racha (km/h) Dirección de racha Precipitación (mm) Presión (hPa) Tendencia (hPa) Humedad (%)
2020-04-08 23:00:00 13.4 9 Sudeste 17 Sudeste 0 -- -- 72
2020-04-08 22:00:00 14.7 0 Calma 4 Sur 0 -- -- 70
2020-04-08 21:00:00 16.4 4 Sudeste 15 Sudeste 0 -- -- 66
2020-04-08 20:00:00 19.8 10 Sur 20 Sur 0 -- -- 57
2020-04-08 19:00:00 22 13 Sur 33 Este 0 -- -- 48
2020-04-08 18:00:00 22.7 10 Este 21 Este 0 -- -- 49
2020-04-08 17:00:00 22.2 8 Sudeste 15 Este 0 -- -- 52
2020-04-08 16:00:00 21.2 10 Sudeste 22 Sudeste 0 -- -- 55
2020-04-08 15:00:00 20.1 8 Sudeste 17 Sudeste 0 -- -- 61
2020-04-08 14:00:00 18.8 10 Sudeste 20 Este 0 -- -- 65
2020-04-08 13:00:00 16.6 12 Sudeste 22 Este 0 -- -- 68
2020-04-08 12:00:00 14.6 11 Este 21 Sudeste 0 -- -- 72
2020-04-08 11:00:00 12.7 13 Sudeste 19 Sudeste 0 -- -- 73
2020-04-08 10:00:00 10 6 Este 14 Este 0 -- -- 86
2020-04-08 09:00:00 8.1 6 Este 12 Este 0 -- -- 94
2020-04-08 08:00:00 7.2 2 Este 4 Este 0 -- -- 91
2020-04-08 07:00:00 7.9 0 Calma 4 Este 0 -- -- 91
2020-04-08 06:00:00 8.4 3 Este 10 Este 0 -- -- 91
2020-04-08 05:00:00 9.1 5 Sudeste 13 Este 0 -- -- 90
2020-04-08 04:00:00 9.6 5 Este 15 Este 0 -- -- 91
2020-04-08 03:00:00 10.2 9 Sudeste 15 Sudeste 0 -- -- 90
2020-04-08 02:00:00 10.5 6 Este 15 Este 0 -- -- 90
2020-04-08 01:00:00 10.9 9 Sudeste 19 Este 0 -- -- 90
2020-04-08 00:00:00 11.4 5 Este 21 Este 0 -- -- 91
2020-04-07 23:00:00 12.2 9 Este 22 Sudeste 0 -- -- 89
2020-04-07 22:00:00 13.6 10 Este 18 Este 0 -- -- 85
2020-04-07 21:00:00 14.9 0 Calma 12 Este 0 -- -- 82
2020-04-07 20:00:00 16.2 6 Este 20 Este 0 -- -- 77
2020-04-07 19:00:00 16.7 7 Este 19 Este 0 -- -- 75
2020-04-07 18:00:00 17.7 12 Este 21 Este 0 -- -- 73
2020-04-07 17:00:00 16.4 12 Este 22 Sudeste 0 -- -- 78
2020-04-07 16:00:00 16.6 10 Este 20 Este 0 -- -- 78
2020-04-07 15:00:00 15.9 10 Este 19 Este 0 -- -- 82
2020-04-07 14:00:00 14.4 9 Sudeste 18 Sudeste 0 -- -- 87
2020-04-07 13:00:00 13.7 9 Este 17 Este 0 -- -- 91
2020-04-07 12:00:00 12.4 9 Este 16 Este 0 -- -- 94
2020-04-07 11:00:00 11.8 8 Este 16 Este 0 -- -- 96
2020-04-07 10:00:00 11.1 9 Sudeste 15 Sudeste 0 -- -- 97
2020-04-07 09:00:00 10.7 5 Sudeste 12 Sudeste 0 -- -- 98
2020-04-07 08:00:00 10.5 3 Sudeste 13 Sudeste 0 -- -- 98
2020-04-07 07:00:00 10.5 4 Sudeste 13 Sudeste 0 -- -- 97
2020-04-07 06:00:00 11 7 Sudeste 13 Este 0.2 -- -- 97
2020-04-07 05:00:00 11.3 6 Sudeste 13 Sudeste 1.4 -- -- 97
2020-04-07 04:00:00 11.4 4 Sudeste 12 Este 1.2 -- -- 97
2020-04-07 03:00:00 11.6 4 Sur 14 Sur 0 -- -- 96
2020-04-07 02:00:00 11.9 4 Sudeste 13 Sudeste 0 -- -- 96
2020-04-07 01:00:00 11.6 0 Calma 4 Sur 0 -- -- 95
2020-04-07 00:00:00 11.8 3 Sudoeste 5 Sur 0 -- -- 94
2020-04-06 23:00:00 12.1 0 Calma 7 Sudeste 0 -- -- 93
2020-04-06 22:00:00 12.6 2 Oeste 10 Este 0 -- -- 91
2020-04-06 21:00:00 13.8 4 Sudeste 11 Sudeste 0 -- -- 88
2020-04-06 20:00:00 15.6 8 Sur 13 Sudeste 0 -- -- 84
2020-04-06 19:00:00 16.7 6 Sur 13 Sur 0 -- -- 79
2020-04-06 18:00:00 14.4 6 Sudoeste 16 Sudoeste 0 -- -- 90
2020-04-06 17:00:00 14.6 4 Sudoeste 23 Sudoeste 0.8 -- -- 89
2020-04-06 16:00:00 16 10 Sudoeste 18 Sudoeste 0 -- -- 79
2020-04-06 15:00:00 16 8 Sur 22 Sur 0 -- -- 82
2020-04-06 14:00:00 14.9 11 Sur 19 Sur 0 -- -- 89
2020-04-06 13:00:00 13 12 Sur 17 Sur 0 -- -- 95
2020-04-06 12:00:00 11.8 9 Sudeste 15 Sudeste 0.2 -- -- 96
2020-04-06 11:00:00 10.9 9 Sudeste 14 Sur 0.2 -- -- 96
2020-04-06 10:00:00 10.3 5 Sur 9 Sudeste 0.2 -- -- 96
2020-04-06 09:00:00 9.3 5 Sudeste 9 Sudeste 0 -- -- 96
2020-04-06 08:00:00 8.2 0 Calma 6 Este 0 -- -- 96
2020-04-06 07:00:00 7.3 0 Calma 4 Nordeste 0 -- -- 93
2020-04-06 06:00:00 7.8 0 Calma 4 Sur 0 -- -- 92
2020-04-06 05:00:00 8.2 0 Calma 6 Sudeste 0 -- -- 91
2020-04-06 04:00:00 8.8 4 Sudeste 8 Este 0 -- -- 90
2020-04-06 03:00:00 10.2 0 Calma 12 Sudeste 0 -- -- 87
2020-04-06 02:00:00 11.1 4 Sudeste 13 Este 0 -- -- 85
2020-04-06 01:00:00 11.9 6 Sudeste 12 Sudeste 0 -- -- 83
2020-04-06 00:00:00 12.3 9 Sudeste 21 Este 0 -- -- 81
2020-04-05 23:00:00 13.2 11 Sudeste 24 Sur 0 -- -- 76
2020-04-05 22:00:00 13.7 13 Sur 21 Sudeste 0 -- -- 71
2020-04-05 21:00:00 14.9 9 Sur 22 Sudeste 0 -- -- 68
2020-04-05 20:00:00 17.6 13 Sudeste 24 Sudeste 0 -- -- 56
2020-04-05 19:00:00 20 13 Sudeste 24 Sur 0 -- -- 49
2020-04-05 18:00:00 20.7 15 Sur 25 Sur 0 -- -- 49
2020-04-05 17:00:00 20.5 13 Sur 27 Sur 0 -- -- 49
2020-04-05 16:00:00 19.6 18 Sur 27 Sur 0 -- -- 50
2020-04-05 15:00:00 18.9 13 Sudeste 29 Sur 0 -- -- 48
2020-04-05 14:00:00 17.4 15 Sudeste 24 Sur 0 -- -- 56
2020-04-05 13:00:00 15.5 14 Sudeste 23 Sudeste 0 -- -- 60
2020-04-05 12:00:00 13.9 12 Sudeste 22 Sudeste 0 -- -- 66
2020-04-05 11:00:00 11.1 12 Este 25 Este 0 -- -- 74
2020-04-05 10:00:00 9.4 15 Sudeste 24 Este 0 -- -- 79
2020-04-05 09:00:00 8.3 9 Sudeste 18 Sudeste 0 -- -- 82
2020-04-05 08:00:00 7.6 6 Sudeste 15 Sudeste 0 -- -- 84
2020-04-05 07:00:00 8.1 9 Sudeste 18 Sudeste 0 -- -- 83
2020-04-05 06:00:00 8.3 6 Sudeste 23 Este 0 -- -- 83
2020-04-05 05:00:00 8.4 13 Este 30 Este 0 -- -- 82
2020-04-05 04:00:00 8.5 17 Este 30 Sudeste 0 -- -- 82
2020-04-05 03:00:00 8.8 16 Sudeste 32 Este 0 -- -- 81
2020-04-05 02:00:00 9.2 17 Sudeste 32 Este 0 -- -- 80
2020-04-05 01:00:00 9.4 15 Sudeste 33 Este 0 -- -- 79
2020-04-05 00:00:00 9.7 19 Sudeste 39 Sudeste 0 -- -- 73
2020-04-04 23:00:00 10.3 20 Sudeste 46 Sudeste 0 -- -- 73
2020-04-04 22:00:00 11 23 Sudeste 40 Sudeste 0 -- -- 69
2020-04-04 21:00:00 11.8 20 Sudeste 38 Sudeste 0 -- -- 64
2020-04-04 20:00:00 12.9 23 Sudeste 40 Este 0 -- -- 61
2020-04-04 19:00:00 13.9 25 Sudeste 44 Sudeste 0 -- -- 57
2020-04-04 18:00:00 15.3 31 Sudeste 49 Sudeste 0 -- -- 54
2020-04-04 17:00:00 16 30 Sudeste 50 Sudeste 0 -- -- 52
2020-04-04 16:00:00 16 31 Sudeste 54 Sudeste 0 -- -- 48
2020-04-04 15:00:00 15.9 32 Sudeste 54 Sudeste 0 -- -- 52
2020-04-04 14:00:00 14.8 34 Sudeste 50 Sudeste 0 -- -- 56
2020-04-04 13:00:00 13.7 31 Sudeste 44 Sudeste 0 -- -- 61
2020-04-04 12:00:00 12.1 21 Sudeste 36 Sudeste 0 -- -- 73
2020-04-04 11:00:00 10 19 Este 33 Este 0 -- -- 82
2020-04-04 10:00:00 7.6 18 Este 32 Este 0 -- -- 91
2020-04-04 09:00:00 5.6 15 Este 27 Este 0 -- -- 96
2020-04-04 08:00:00 4.5 3 Sur 10 Este 0 -- -- 93
2020-04-04 07:00:00 5.5 4 Este 21 Sudeste 0 -- -- 92
2020-04-04 06:00:00 5.6 4 Este 11 Este 0 -- -- 93
2020-04-04 05:00:00 5.8 3 Este 13 Este 0 -- -- 94
2020-04-04 04:00:00 5.7 4 Sudeste 16 Sudeste 0 -- -- 93
2020-04-04 03:00:00 5.6 5 Este 10 Este 0 -- -- 94
2020-04-04 02:00:00 4.7 0 Calma 5 Norte 0 -- -- 87
2020-04-04 01:00:00 5.4 3 Norte 5 Noroeste 0 -- -- 85
2020-04-04 00:00:00 6.8 0 Calma 4 Norte 0 -- -- 82
2020-04-03 23:00:00 8.1 0 Calma 6 Noroeste 0 -- -- 80
2020-04-03 22:00:00 10.2 3 Noroeste 5 Norte 0 -- -- 75
2020-04-03 21:00:00 13 0 Calma 5 Oeste 0 -- -- 63
2020-04-03 20:00:00 16 0 Calma 7 Norte 0 -- -- 45
2020-04-03 19:00:00 16.5 4 Sur 11 Norte 0 -- -- 46
2020-04-03 18:00:00 16.2 4 Norte 13 Noroeste 0 -- -- 45
2020-04-03 17:00:00 14.9 6 Noroeste 17 Norte 0 -- -- 48
2020-04-03 16:00:00 14.6 7 Norte 17 Noroeste 0 -- -- 50
2020-04-03 15:00:00 13.5 8 Noroeste 17 Noroeste 0 -- -- 52
2020-04-03 14:00:00 12.9 4 Norte 15 Norte 0 -- -- 57
2020-04-03 13:00:00 10.9 5 Norte 15 Noroeste 0 -- -- 59
2020-04-03 12:00:00 9.2 6 Norte 14 Nordeste 0 -- -- 58
2020-04-03 11:00:00 7 3 Noroeste 9 Norte 0 -- -- 81
2020-04-03 10:00:00 4.9 4 Norte 9 Noroeste 0 -- -- 97
2020-04-03 09:00:00 2.3 3 Norte 5 Noroeste 0 -- -- 98
2020-04-03 08:00:00 1.6 3 Norte 6 Norte 0 -- -- 97
2020-04-03 07:00:00 2.2 0 Calma 6 Noroeste 0 -- -- 97
2020-04-03 06:00:00 2.7 0 Calma 5 Norte 0 -- -- 95
2020-04-03 05:00:00 3.6 2 Noroeste 9 Norte 0 -- -- 95
2020-04-03 04:00:00 4.5 4 Norte 8 Noroeste 0 -- -- 96
2020-04-03 03:00:00 5.2 0 Calma 4 Sudeste 0 -- -- 93
2020-04-03 02:00:00 6.5 0 Calma 4 Norte 0 -- -- 91
2020-04-03 01:00:00 7.7 2 Oeste 4 Sudoeste 0 -- -- 92
2020-04-03 00:00:00 8.1 0 Calma 12 Sudeste 0 -- -- 91
2020-04-02 23:00:00 8.4 6 Este 12 Este 0 -- -- 92
2020-04-02 22:00:00 8.4 0 Calma 5 Sudoeste 0 -- -- 90
2020-04-02 21:00:00 8.2 4 Sudoeste 11 Sudeste 0 -- -- 89
2020-04-02 20:00:00 9.8 4 Sudeste 15 Sur 2.8 -- -- 86
2020-04-02 19:00:00 11.9 4 Este 26 Noroeste 0.8 -- -- 71
2020-04-02 18:00:00 14.7 15 Norte 34 Noroeste 0 -- -- 51
2020-04-02 17:00:00 15.2 10 Norte 24 Norte 0 -- -- 43
2020-04-02 16:00:00 14.4 14 Norte 27 Norte 0 -- -- 50
2020-04-02 15:00:00 13.7 8 Norte 22 Nordeste 0 -- -- 52
2020-04-02 14:00:00 12.9 7 Norte 19 Norte 0 -- -- 56
2020-04-02 13:00:00 10.7 10 Norte 21 Noroeste 0 -- -- 63
2020-04-02 12:00:00 8.4 6 Norte 11 Norte 0 -- -- 89
2020-04-02 11:00:00 5.9 0 Calma 8 Sudoeste 0 -- -- 98
2020-04-02 10:00:00 3.8 3 Sudoeste 10 Norte 0 -- -- 99
2020-04-02 09:00:00 1.8 2 Noroeste 14 Sur 0 -- -- 98
2020-04-02 08:00:00 1.2 0 Calma 13 Sur 0 -- -- 97
2020-04-02 07:00:00 1.5 4 Noroeste 6 Norte 0 -- -- 97
2020-04-02 06:00:00 1.2 4 Noroeste 7 Noroeste 0 -- -- 96
2020-04-02 05:00:00 1.7 2 Nordeste 9 Sudeste 0 -- -- 95
2020-04-02 04:00:00 2.4 2 Noroeste 5 Norte 0 -- -- 94
2020-04-02 03:00:00 3.4 2 Noroeste 4 Sur 0 -- -- 94
2020-04-02 02:00:00 3.7 5 Sur 10 Sur 0 -- -- 90
2020-04-02 01:00:00 4.7 3 Noroeste 5 Noroeste 0 -- -- 91
2020-04-02 00:00:00 5.3 0 Calma 6 Noroeste 0 -- -- 88
2020-04-01 23:00:00 6.7 4 Noroeste 7 Noroeste 0 -- -- 85
2020-04-01 22:00:00 7.9 2 Norte 10 Noroeste 0 -- -- 82
2020-04-01 21:00:00 9.6 5 Noroeste 23 Noroeste 0 -- -- 77
2020-04-01 20:00:00 13 3 Oeste 13 Sudoeste 0 -- -- 60
2020-04-01 19:00:00 14.2 5 Oeste 21 Sudoeste 0 -- -- 56
2020-04-01 18:00:00 12.8 11 Sudoeste 27 Sudoeste 0 -- -- 59
2020-04-01 17:00:00 13.9 14 Sudoeste 23 Oeste 0 -- -- 60
2020-04-01 16:00:00 12.8 6 Oeste 27 Sudoeste 0 -- -- 65
2020-04-01 15:00:00 11.8 8 Oeste 29 Sudoeste 0 -- -- 72
2020-04-01 14:00:00 12.7 19 Sur 31 Sur 0 -- -- 71
2020-04-01 13:00:00 10.9 8 Sudoeste 21 Sudoeste 0 -- -- 84
2020-04-01 12:00:00 10.4 12 Sur 20 Sur 0 -- -- 89
2020-04-01 11:00:00 9.4 10 Sur 19 Sur 0 -- -- 96
2020-04-01 10:00:00 8.3 10 Sur 14 Sur 0 -- -- 100
2020-04-01 09:00:00 7 0 Calma 3 Oeste 0 -- -- 100
2020-04-01 08:00:00 6.2 0 Calma 4 Sudeste 0 -- -- 99
2020-04-01 07:00:00 6.4 0 Calma 8 Sudeste 0 -- -- 98
2020-04-01 06:00:00 6.4 0 Calma 4 Sudeste 0 -- -- 98
2020-04-01 05:00:00 6.7 2 Este 13 Este 0.6 -- -- 98
2020-04-01 04:00:00 7.2 4 Este 20 Sur 6.2 -- -- 98
2020-04-01 03:00:00 8.3 7 Sur 15 Sur 0.8 -- -- 99
2020-04-01 02:00:00 8.4 6 Sudeste 15 Sudeste 0.4 -- -- 99
2020-04-01 01:00:00 8.1 15 Sur 34 Sudeste 9.4 -- -- 98
2020-04-01 00:00:00 8.5 21 Sudeste 31 Este 2.2 -- -- 97
2020-03-31 23:00:00 8.6 17 Este 30 Sudeste 2.2 -- -- 97
2020-03-31 22:00:00 8.6 8 Sudeste 17 Este 0.2 -- -- 96
2020-03-31 21:00:00 9 9 Sudeste 23 Sudeste 0 -- -- 94
2020-03-31 20:00:00 9.6 5 Este 14 Sur 3.2 -- -- 94
2020-03-31 19:00:00 9.7 9 Sudoeste 31 Sur 9.8 -- -- 91
2020-03-31 18:00:00 11 16 Este 37 Sudeste 0.4 -- -- 89
2020-03-31 17:00:00 11.8 20 Sudeste 38 Este 0 -- -- 85
2020-03-31 16:00:00 10.8 23 Sudeste 37 Este 1 -- -- 88
2020-03-31 15:00:00 10.3 23 Sudeste 43 Este 0 -- -- 92
2020-03-31 14:00:00 9.8 24 Sudeste 45 Sudeste 0 -- -- 89
2020-03-31 13:00:00 8.8 28 Sudeste 45 Este 0 -- -- 90
2020-03-31 12:00:00 7.9 29 Sudeste 51 Sudeste 0.2 -- -- 92
2020-03-31 11:00:00 6.4 28 Sudeste 50 Este 0 -- -- 97
2020-03-31 10:00:00 5.1 23 Este 36 Sudeste 0.4 -- -- 97
2020-03-31 09:00:00 4.5 21 Este 41 Este 0.6 -- -- 97
2020-03-31 08:00:00 4.2 18 Este 40 Sudeste 0.8 -- -- 97
2020-03-31 07:00:00 4 17 Este 36 Este 1 -- -- 97
2020-03-31 06:00:00 3.8 21 Este 41 Este 0.8 -- -- 96
2020-03-31 05:00:00 3.9 27 Este 46 Este 0 -- -- 96
2020-03-31 04:00:00 4.2 26 Este 44 Sudeste 0.2 -- -- 96
2020-03-31 03:00:00 4.3 23 Este 41 Sudeste 0.2 -- -- 96
2020-03-31 02:00:00 4.1 20 Este 36 Este 0 -- -- 96
2020-03-31 01:00:00 3.9 23 Este 44 Este 0.4 -- -- 95
2020-03-31 00:00:00 4.2 18 Este 35 Este 1.6 -- -- 95
2020-03-30 23:00:00 4.7 14 Este 30 Este 2.2 -- -- 95
2020-03-30 22:00:00 5.3 12 Este 24 Este 2 -- -- 93
2020-03-30 21:00:00 6.1 9 Este 21 Este 1 -- -- 93
2020-03-30 20:00:00 5.4 14 Norte 30 Nordeste 0.4 -- -- 91
2020-03-30 19:00:00 6.5 12 Norte 28 Norte 0.6 -- -- 88
2020-03-30 18:00:00 7.4 15 Norte 26 Nordeste 1.6 -- -- 84
2020-03-30 17:00:00 9.8 12 Norte 21 Noroeste 0.6 -- -- 79
2020-03-30 16:00:00 12.4 8 Nordeste 15 Nordeste 0 -- -- 64
2020-03-30 15:00:00 12.9 4 Norte 13 Nordeste 0 -- -- 61
2020-03-30 14:00:00 11.9 8 Norte 13 Norte 0 -- -- 65
2020-03-30 13:00:00 10.8 4 Norte 14 Norte 0 -- -- 70
2020-03-30 12:00:00 9.7 5 Nordeste 17 Nordeste 0 -- -- 73
2020-03-30 11:00:00 7.1 7 Norte 18 Norte 0 -- -- 85
2020-03-30 10:00:00 6.6 6 Norte 16 Norte 0 -- -- 86
2020-03-30 09:00:00 5.6 6 Norte 14 Norte 0 -- -- 86
2020-03-30 08:00:00 5.2 2 Noroeste 5 Norte 0 -- -- 85
2020-03-30 07:00:00 5.3 0 Calma 13 Norte 0 -- -- 83
2020-03-30 06:00:00 6.1 0 Calma 3 Noroeste 0 -- -- 81
2020-03-30 05:00:00 6.8 0 Calma 7 Norte 0 -- -- 78
2020-03-30 04:00:00 7.9 6 Norte 14 Norte 0 -- -- 73
2020-03-30 03:00:00 7.6 7 Norte 15 Noroeste 0 -- -- 75
2020-03-30 02:00:00 6 0 Calma 4 Nordeste 0 -- -- 80
2020-03-30 01:00:00 6.6 0 Calma 4 Norte 0 -- -- 78
2020-03-30 00:00:00 7.2 0 Calma 5 Este 0 -- -- 76
2020-03-29 23:00:00 8.9 0 Calma 5 Norte 0 -- -- 68
2020-03-29 22:00:00 10.4 3 Noroeste 8 Sudoeste 0 -- -- 61
2020-03-29 21:00:00 11.4 2 Noroeste 7 Oeste 0 -- -- 62
2020-03-29 20:00:00 14.9 4 Noroeste 13 Noroeste 0 -- -- 48
2020-03-29 19:00:00 16.6 6 Noroeste 17 Oeste 0 -- -- 41
2020-03-29 18:00:00 16.7 5 Noroeste 19 Noroeste 0 -- -- 40
2020-03-29 17:00:00 16.8 5 Oeste 20 Noroeste 0 -- -- 40
2020-03-29 16:00:00 16.3 7 Noroeste 19 Oeste 0 -- -- 44
2020-03-29 15:00:00 15.3 9 Noroeste 19 Noroeste 0 -- -- 47
2020-03-29 14:00:00 14 10 Noroeste 21 Noroeste 0 -- -- 47
2020-03-29 13:00:00 12.4 8 Noroeste 19 Noroeste 0 -- -- 53
2020-03-29 12:00:00 10.9 3 Noroeste 13 Noroeste 0 -- -- 60
2020-03-29 11:00:00 7.5 2 Noroeste 5 Noroeste 0 -- -- 81
2020-03-29 10:00:00 3.7 0 Calma 5 Noroeste 0 -- -- 96
2020-03-29 09:00:00 1.1 2 Norte 5 Norte 0 -- -- 94
2020-03-29 08:00:00 0.3 4 Noroeste 6 Noroeste 0 -- -- 92
2020-03-29 07:00:00 0.8 2 Norte 5 Noroeste 0 -- -- 92
2020-03-29 06:00:00 0.8 3 Noroeste 6 Norte 0 -- -- 92
2020-03-29 05:00:00 1.2 2 Norte 6 Noroeste 0 -- -- 91
2020-03-29 03:00:00 2.1 3 Norte 4 Norte 0 -- -- 89
2020-03-29 01:00:00 2.8 3 Norte 7 Norte 0 -- -- 87
2020-03-29 00:00:00 3.5 0 Calma 6 Noroeste 0 -- -- 86
2020-03-28 23:00:00 4.7 3 Noroeste 5 Noroeste 0 -- -- 83
2020-03-28 22:00:00 6.5 0 Calma 2 Nordeste 0 -- -- 78
2020-03-28 21:00:00 8.5 0 Calma 3 Sudeste 0 -- -- 71
2020-03-28 20:00:00 10.5 0 Calma 8 Sur 0 -- -- 65
2020-03-28 19:00:00 13.1 4 Sur 11 Sur 0 -- -- 56
2020-03-28 18:00:00 14.6 5 Sudeste 16 Sur 0 -- -- 49
2020-03-28 17:00:00 14 9 Sudoeste 22 Sur 0 -- -- 51
2020-03-28 16:00:00 14.2 11 Sudeste 24 Sudeste 0 -- -- 53
2020-03-28 15:00:00 13.5 10 Sudeste 17 Sudeste 0 -- -- 53
2020-03-28 14:00:00 12.5 7 Este 19 Este 0 -- -- 54
2020-03-28 13:00:00 11.5 9 Sudeste 18 Sudeste 0 -- -- 54
2020-03-28 12:00:00 8.7 4 Sudeste 13 Este 0 -- -- 58
2020-03-28 11:00:00 7.4 6 Este 14 Este 0 -- -- 66
2020-03-28 10:00:00 4.8 5 Este 10 Este 0 -- -- 71
2020-03-28 09:00:00 2.3 5 Noroeste 8 Noroeste 0 -- -- 91
2020-03-28 08:00:00 0.1 2 Noroeste 5 Noroeste 0 -- -- 94
2020-03-28 07:00:00 0.2 2 Noroeste 6 Noroeste 0 -- -- 93
2020-03-28 06:00:00 1.3 4 Noroeste 12 Nordeste 0 -- -- 90
2020-03-28 05:00:00 2.5 6 Nordeste 13 Nordeste 0 -- -- 90
2020-03-28 04:00:00 3 5 Este 19 Este 0 -- -- 90
2020-03-28 03:00:00 4 9 Este 18 Este 0 -- -- 90
2020-03-28 02:00:00 3.5 5 Este 10 Este 0 -- -- 94
2020-03-28 01:00:00 2.9 4 Este 9 Este 0 -- -- 93
2020-03-28 00:00:00 3.2 5 Este 14 Este 0 -- -- 91
2020-03-27 23:00:00 3.2 3 Nordeste 17 Sudeste 0 -- -- 92
2020-03-27 22:00:00 4 14 Sudeste 28 Este 0.2 -- -- 92
2020-03-27 21:00:00 4.5 9 Este 21 Nordeste 0.6 -- -- 91
2020-03-27 20:00:00 4.7 9 Este 28 Este 0.6 -- -- 89
2020-03-27 19:00:00 5.1 10 Este 29 Este 0 -- -- 88
2020-03-27 18:00:00 5.6 11 Este 29 Nordeste 0 -- -- 86
2020-03-27 17:00:00 6.4 15 Este 32 Este 0 -- -- 83
2020-03-27 16:00:00 6.4 17 Este 31 Este 0 -- -- 83
2020-03-27 15:00:00 5.8 16 Este 33 Este 0 -- -- 86
2020-03-27 14:00:00 4.9 14 Este 29 Nordeste 0.2 -- -- 90
2020-03-27 13:00:00 4 12 Nordeste 26 Nordeste 0 -- -- 94
2020-03-27 12:00:00 3.3 8 Nordeste 29 Este 0.8 -- -- 93
2020-03-27 11:00:00 3.3 12 Este 23 Este 0 -- -- 93
2020-03-27 10:00:00 2.9 10 Este 30 Este 2 -- -- 93
2020-03-27 09:00:00 3.8 12 Este 33 Este 0 -- -- 85
2020-03-27 08:00:00 4 9 Este 31 Nordeste 0 -- -- 82
2020-03-27 07:00:00 3.7 14 Este 34 Este 0 -- -- 82
2020-03-27 06:00:00 4.2 17 Este 27 Sudeste 0 -- -- 87
2020-03-27 05:00:00 4.3 11 Sudeste 28 Este 0 -- -- 87
2020-03-27 04:00:00 4.3 11 Este 22 Sudeste 0 -- -- 88
2020-03-27 03:00:00 4.6 9 Sudeste 23 Sudeste 0 -- -- 86
2020-03-27 02:00:00 4.8 14 Este 24 Este 0 -- -- 82
2020-03-27 01:00:00 3.8 4 Sudeste 11 Sudeste 0 -- -- 81
2020-03-27 00:00:00 4.2 4 Sudeste 8 Sudeste 0 -- -- 70
2020-03-26 23:00:00 4.4 2 Noroeste 10 Norte 0 -- -- 70
2020-03-26 22:00:00 6.1 6 Noroeste 11 Norte 0 -- -- 67
2020-03-26 21:00:00 7.3 6 Noroeste 8 Norte 0 -- -- 63
2020-03-26 20:00:00 10.3 4 Norte 17 Nordeste 0 -- -- 50
2020-03-26 19:00:00 12.2 11 Nordeste 26 Noroeste 0 -- -- 44
2020-03-26 18:00:00 14.1 13 Noroeste 27 Noroeste 0 -- -- 32
2020-03-26 17:00:00 14.2 13 Noroeste 30 Noroeste 0 -- -- 32
2020-03-26 16:00:00 13.7 13 Noroeste 29 Oeste 0 -- -- 32
2020-03-26 15:00:00 12.9 12 Noroeste 31 Noroeste 0 -- -- 37
2020-03-26 14:00:00 12.2 15 Noroeste 32 Oeste 0 -- -- 38
2020-03-26 13:00:00 11.4 16 Noroeste 32 Noroeste 0 -- -- 37
2020-03-26 12:00:00 9.7 12 Norte 29 Noroeste 0 -- -- 48
2020-03-26 11:00:00 8.2 10 Norte 23 Norte 0 -- -- 62
2020-03-26 10:00:00 6.5 13 Norte 29 Norte 0.2 -- -- 74
2020-03-26 09:00:00 3.7 11 Norte 22 Norte 0 -- -- 99
2020-03-26 08:00:00 1.8 9 Noroeste 18 Norte 0 -- -- 99
2020-03-26 07:00:00 1.6 5 Norte 9 Noroeste 0 -- -- 98
2020-03-26 06:00:00 0.9 0 Calma 4 Norte 0 -- -- 95
2020-03-26 05:00:00 1.5 3 Norte 8 Oeste 0 -- -- 96
2020-03-26 04:00:00 2.3 2 Noroeste 7 Norte 0 -- -- 95
2020-03-26 03:00:00 2.7 3 Noroeste 5 Noroeste 0 -- -- 93
2020-03-26 02:00:00 3.8 3 Noroeste 5 Noroeste 0 -- -- 91
2020-03-26 01:00:00 5.2 0 Calma 3 Sur 0 -- -- 92
2020-03-26 00:00:00 5.9 0 Calma 13 Este 0 -- -- 91
2020-03-25 23:00:00 7 10 Sudeste 20 Sur 0 -- -- 91
2020-03-25 22:00:00 8.2 15 Sur 22 Sur 0.6 -- -- 88
2020-03-25 21:00:00 9.6 9 Sudeste 25 Este 0 -- -- 76
2020-03-25 20:00:00 12.3 0 Calma 6 Oeste 0 -- -- 58
2020-03-25 19:00:00 13.9 4 Oeste 16 Noroeste 0 -- -- 49
2020-03-25 18:00:00 14.7 7 Oeste 19 Noroeste 0 -- -- 46
2020-03-25 17:00:00 14.5 6 Oeste 17 Noroeste 0 -- -- 48
2020-03-25 16:00:00 13.6 11 Noroeste 21 Norte 0 -- -- 51
2020-03-25 15:00:00 13.1 8 Noroeste 22 Noroeste 0 -- -- 56
2020-03-25 14:00:00 12 5 Oeste 15 Sudoeste 0 -- -- 62
2020-03-25 13:00:00 10.6 4 Sur 12 Sur 0 -- -- 67
2020-03-25 12:00:00 9.7 5 Sur 12 Sur 0 -- -- 70
2020-03-25 11:00:00 8.1 6 Sur 13 Sur 0 -- -- 80
2020-03-25 10:00:00 6 3 Sudeste 6 Sur 0 -- -- 86
2020-03-25 09:00:00 4.6 3 Nordeste 11 Nordeste 0 -- -- 94
2020-03-25 08:00:00 2.9 0 Calma 5 Noroeste 0 -- -- 97
2020-03-25 07:00:00 1.6 4 Noroeste 8 Noroeste 0 -- -- 94
2020-03-25 06:00:00 2.5 0 Calma 9 Este 0 -- -- 93
2020-03-25 05:00:00 3.6 2 Este 8 Sudeste 0 -- -- 94
2020-03-25 04:00:00 3.8 0 Calma 3 Nordeste 0 -- -- 93
2020-03-25 03:00:00 4.3 0 Calma 8 Sudeste 0 -- -- 92
2020-03-25 02:00:00 4.7 6 Sur 16 Sudeste 0 -- -- 92
2020-03-25 01:00:00 5.7 9 Sudeste 17 Sudeste 0 -- -- 92
2020-03-25 00:00:00 4.9 0 Calma 5 Sudeste 0 -- -- 89
2020-03-24 23:00:00 5.8 3 Sudeste 13 Este 0 -- -- 88
2020-03-24 22:00:00 6.5 4 Sudeste 21 Sudeste 0 -- -- 85
2020-03-24 21:00:00 7.9 9 Sudeste 24 Este 0 -- -- 82
2020-03-24 20:00:00 8.3 9 Sudeste 31 Este 0 -- -- 80
2020-03-24 19:00:00 9.7 18 Sudeste 31 Este 0 -- -- 74
2020-03-24 18:00:00 10.8 17 Este 35 Este 0 -- -- 69
2020-03-24 17:00:00 11.5 15 Este 32 Este 0 -- -- 68
2020-03-24 16:00:00 11.6 18 Este 37 Este 0 -- -- 68
2020-03-24 15:00:00 12 21 Este 46 Este 0 -- -- 68
2020-03-24 14:00:00 12.4 22 Este 50 Este 0 -- -- 67
2020-03-24 13:00:00 12 22 Este 46 Este 0 -- -- 73
2020-03-24 12:00:00 11.8 22 Este 44 Nordeste 0 -- -- 76
2020-03-24 11:00:00 9.7 12 Este 41 Este 0.2 -- -- 85
2020-03-24 10:00:00 9.9 20 Este 38 Este 0 -- -- 80
2020-03-24 09:00:00 9.1 12 Este 30 Este 0 -- -- 85
2020-03-24 08:00:00 8.4 9 Este 19 Este 0 -- -- 87
2020-03-24 07:00:00 8.3 8 Este 22 Este 0 -- -- 88
2020-03-24 06:00:00 8.5 9 Este 25 Este 0 -- -- 88
2020-03-24 05:00:00 8.8 11 Este 27 Este 0 -- -- 86
2020-03-24 04:00:00 8.8 8 Este 23 Este 0 -- -- 86
2020-03-24 03:00:00 8.7 9 Este 21 Nordeste 0 -- -- 86
2020-03-24 02:00:00 8.6 8 Este 21 Este 0 -- -- 88
2020-03-24 01:00:00 8.8 9 Este 25 Este 0 -- -- 87
2020-03-24 00:00:00 8.9 11 Este 24 Este 0 -- -- 88
2020-03-23 23:00:00 8.9 9 Este 26 Este 0 -- -- 88
2020-03-23 22:00:00 8.8 12 Este 24 Este 0 -- -- 88
2020-03-23 21:00:00 8.8 13 Nordeste 30 Nordeste 0 -- -- 87
2020-03-23 20:00:00 9 12 Este 24 Nordeste 0 -- -- 88
2020-03-23 19:00:00 9.5 10 Este 48 Este 1.2 -- -- 89
2020-03-23 18:00:00 12.3 12 Este 31 Este 0 -- -- 72
2020-03-23 17:00:00 12.2 12 Este 32 Este 0 -- -- 74
2020-03-23 16:00:00 12.4 15 Este 41 Este 0 -- -- 77
2020-03-23 15:00:00 11.9 21 Este 42 Este 0.6 -- -- 81
2020-03-23 14:00:00 13.5 18 Este 33 Sudeste 0 -- -- 72
2020-03-23 13:00:00 13 17 Sudeste 31 Este 0 -- -- 74
2020-03-23 12:00:00 11.3 18 Este 33 Este 0 -- -- 81
2020-03-23 11:00:00 10.6 15 Este 32 Este 0 -- -- 84
2020-03-23 10:00:00 9.5 14 Este 28 Este 0 -- -- 91
2020-03-23 09:00:00 8 8 Este 16 Este 0 -- -- 96
2020-03-23 08:00:00 7.5 5 Este 13 Este 0.4 -- -- 97
2020-03-23 07:00:00 7.2 6 Este 13 Este 0 -- -- 97
2020-03-23 06:00:00 7.2 4 Este 11 Nordeste 0.2 -- -- 97
2020-03-23 05:00:00 7.2 5 Este 12 Nordeste 0.8 -- -- 97
2020-03-23 04:00:00 7.2 3 Este 11 Este 0 -- -- 96
2020-03-23 03:00:00 7.3 6 Este 16 Este 0 -- -- 95
2020-03-23 02:00:00 7.5 11 Este 20 Este 0 -- -- 95
2020-03-23 01:00:00 7.9 9 Este 26 Este 0 -- -- 95
2020-03-23 00:00:00 7.9 12 Este 20 Este 0 -- -- 95
2020-03-22 23:00:00 8 10 Este 22 Este 0 -- -- 95
2020-03-22 22:00:00 8 8 Este 18 Este 0 -- -- 95
2020-03-22 21:00:00 8 7 Este 17 Sudeste 0.2 -- -- 94
2020-03-22 20:00:00 8 10 Sudeste 27 Sudeste 0.6 -- -- 93
2020-03-22 19:00:00 9.1 14 Este 27 Este 0 -- -- 87
2020-03-22 18:00:00 9.2 9 Este 26 Este 0.2 -- -- 88
2020-03-22 17:00:00 11 10 Sudeste 19 Sudeste 0 -- -- 81
2020-03-22 16:00:00 11.1 6 Sudeste 17 Sudeste 0 -- -- 81
2020-03-22 15:00:00 10 10 Este 23 Sur 0.8 -- -- 84
2020-03-22 14:00:00 11.9 16 Sur 28 Sur 0 -- -- 76
2020-03-22 13:00:00 12.3 9 Sudeste 30 Sudeste 0 -- -- 70
2020-03-22 12:00:00 10.7 12 Este 23 Sudeste 0 -- -- 76
2020-03-22 11:00:00 9.1 9 Sudeste 18 Este 0 -- -- 86
2020-03-22 10:00:00 7.4 9 Este 15 Sudeste 0 -- -- 93
2020-03-22 09:00:00 5 0 Calma 5 Noroeste 0 -- -- 97
2020-03-22 08:00:00 3.7 2 Oeste 8 Norte 0 -- -- 98
2020-03-22 07:00:00 3.5 4 Norte 9 Norte 0 -- -- 98
2020-03-22 06:00:00 3.4 4 Noroeste 9 Norte 0 -- -- 98
2020-03-22 05:00:00 4.1 0 Calma 6 Sudeste 0 -- -- 98
2020-03-22 04:00:00 4.6 4 Este 11 Nordeste 0 -- -- 97
2020-03-22 03:00:00 4.9 3 Este 8 Sudeste 0 -- -- 97
2020-03-22 02:00:00 5.1 5 Sudeste 15 Sudeste 0 -- -- 96
2020-03-22 01:00:00 5.3 5 Sudeste 15 Sudeste 0 -- -- 96
2020-03-22 00:00:00 4.8 4 Sur 6 Sur 0 -- -- 93
2020-03-21 23:00:00 5.7 3 Sudeste 11 Este 0 -- -- 94
2020-03-21 22:00:00 6 6 Este 13 Nordeste 0 -- -- 94
2020-03-21 21:00:00 6.4 4 Este 9 Este 0.2 -- -- 92
2020-03-21 20:00:00 6.9 3 Sudeste 8 Este 0.4 -- -- 91
2020-03-21 19:00:00 7.5 3 Este 12 Este 0.4 -- -- 89
2020-03-21 18:00:00 7.9 6 Este 13 Este 0.4 -- -- 83
2020-03-21 17:00:00 8.4 3 Este 6 Este 0 -- -- 80
2020-03-21 16:00:00 8 2 Sudeste 12 Sur 0.2 -- -- 82
2020-03-21 15:00:00 7.6 6 Sudoeste 19 Sur 0 -- -- 86
2020-03-21 14:00:00 8.1 10 Sudoeste 23 Sudoeste 0 -- -- 83
2020-03-21 13:00:00 9 12 Sudoeste 19 Sudoeste 0 -- -- 77
2020-03-21 12:00:00 7.6 15 Sudoeste 27 Sur 0 -- -- 88
2020-03-21 11:00:00 9.4 13 Sudeste 32 Este 0 -- -- 86
2020-03-21 10:00:00 9.2 21 Sudeste 35 Sudeste 0 -- -- 86
2020-03-21 09:00:00 8.1 15 Sudeste 27 Sudeste 0 -- -- 92
2020-03-21 08:00:00 7.4 13 Este 29 Este 0 -- -- 95
2020-03-21 07:00:00 7.1 13 Este 24 Este 0 -- -- 95
2020-03-21 06:00:00 7 10 Este 22 Este 0 -- -- 94
2020-03-21 05:00:00 7.1 12 Este 24 Este 0 -- -- 93
2020-03-21 04:00:00 7 13 Este 30 Este 0 -- -- 92
2020-03-21 03:00:00 7.3 14 Este 26 Sudeste 0 -- -- 92
2020-03-21 02:00:00 7 14 Este 28 Sudeste 0 -- -- 92
2020-03-21 01:00:00 6.3 15 Este 28 Sudeste 0 -- -- 90
2020-03-21 00:00:00 6.7 19 Este 34 Este 0 -- -- 88
2020-03-20 23:00:00 7.1 18 Este 32 Este 0 -- -- 89
2020-03-20 22:00:00 7.3 15 Este 28 Este 0 -- -- 88
2020-03-20 21:00:00 7.7 16 Este 33 Este 0 -- -- 87
2020-03-20 20:00:00 8.5 15 Este 29 Este 0 -- -- 88
2020-03-20 19:00:00 9.6 15 Este 34 Sudeste 0 -- -- 84
2020-03-20 18:00:00 10.5 19 Este 42 Este 0 -- -- 81
2020-03-20 17:00:00 11.2 22 Este 42 Sudeste 0 -- -- 78
2020-03-20 16:00:00 11.8 22 Este 41 Este 0 -- -- 75
2020-03-20 15:00:00 12.2 23 Sudeste 39 Sudeste 0 -- -- 69
2020-03-20 14:00:00 12.4 23 Sudeste 35 Este 0 -- -- 70
2020-03-20 13:00:00 11.4 18 Este 35 Este 0 -- -- 75
2020-03-20 12:00:00 10.7 21 Este 35 Sudeste 0 -- -- 75
2020-03-20 11:00:00 9.7 22 Sudeste 34 Sudeste 0 -- -- 80
2020-03-20 10:00:00 9.3 18 Sudeste 31 Este 0 -- -- 84
2020-03-20 09:00:00 8.3 15 Este 28 Sudeste 0 -- -- 91
2020-03-20 08:00:00 7 12 Sudeste 28 Sudeste 0 -- -- 94
2020-03-20 07:00:00 6.2 10 Este 17 Este 0 -- -- 94
2020-03-20 06:00:00 6.5 3 Sudeste 17 Este 0 -- -- 92
2020-03-20 05:00:00 7.2 10 Este 20 Este 0 -- -- 91
2020-03-20 04:00:00 7.6 11 Este 24 Este 0 -- -- 89
2020-03-20 03:00:00 8.1 12 Este 29 Sudeste 0 -- -- 85
2020-03-20 02:00:00 8.6 15 Sudeste 29 Sudeste 0 -- -- 85
2020-03-20 01:00:00 8.8 15 Sudeste 28 Sudeste 0 -- -- 85
2020-03-20 00:00:00 9.1 14 Este 32 Este 0 -- -- 85
2020-03-19 23:00:00 9.3 17 Este 32 Sudeste 0 -- -- 84
2020-03-19 22:00:00 9.7 18 Este 31 Sudeste 0 -- -- 85
2020-03-19 21:00:00 10.2 17 Este 30 Este 0 -- -- 82
2020-03-19 20:00:00 10.5 17 Este 32 Este 0 -- -- 79
2020-03-19 19:00:00 11.4 18 Este 38 Este 0 -- -- 74
2020-03-19 18:00:00 12.3 19 Este 35 Este 0 -- -- 70
2020-03-19 17:00:00 12.7 23 Este 35 Este 0 -- -- 68
2020-03-19 16:00:00 13.7 21 Este 38 Este 0 -- -- 65
2020-03-19 15:00:00 14.5 21 Este 35 Este 0 -- -- 61
2020-03-19 14:00:00 13.9 22 Este 40 Este 0 -- -- 63
2020-03-19 13:00:00 13.1 22 Este 39 Este 0 -- -- 65
2020-03-19 12:00:00 12.3 22 Sudeste 35 Sudeste 0 -- -- 68
2020-03-19 11:00:00 11.1 21 Este 36 Sudeste 0 -- -- 72
2020-03-19 10:00:00 9.4 18 Este 31 Este 0 -- -- 82
2020-03-19 09:00:00 7.5 10 Este 24 Este 0 -- -- 90
2020-03-19 08:00:00 5.9 12 Este 22 Este 0 -- -- 94
2020-03-19 07:00:00 5.4 7 Este 16 Este 0 -- -- 93
2020-03-19 06:00:00 5.5 7 Este 17 Este 0 -- -- 92
2020-03-19 05:00:00 5.7 9 Este 21 Este 0 -- -- 93
2020-03-19 04:00:00 5.8 5 Este 17 Nordeste 0 -- -- 92
2020-03-19 03:00:00 6.5 10 Este 22 Este 0 -- -- 92
2020-03-19 02:00:00 7 10 Este 24 Este 0 -- -- 92
2020-03-19 01:00:00 7.3 14 Este 22 Este 0 -- -- 92
2020-03-19 00:00:00 7.2 8 Sudeste 23 Sudeste 0 -- -- 90
2020-03-18 23:00:00 8.1 6 Sudeste 15 Sudeste 0 -- -- 81
2020-03-18 22:00:00 9 6 Sudoeste 10 Sudoeste 0 -- -- 74
2020-03-18 21:00:00 10.2 3 Sudeste 13 Este 0 -- -- 71
2020-03-18 20:00:00 11.5 8 Sudeste 23 Sudeste 0 -- -- 71
2020-03-18 19:00:00 13.2 12 Sudeste 27 Sudeste 0 -- -- 65
2020-03-18 18:00:00 14.5 15 Sudeste 27 Este 0 -- -- 59
2020-03-18 17:00:00 14.6 16 Este 28 Este 0 -- -- 60
2020-03-18 16:00:00 13.4 11 Este 29 Este 0 -- -- 68
2020-03-18 15:00:00 14.8 16 Este 29 Este 0 -- -- 66
2020-03-18 14:00:00 14.6 18 Sudeste 31 Sudeste 0 -- -- 65
2020-03-18 13:00:00 12.8 17 Este 31 Sudeste 0 -- -- 71
2020-03-18 12:00:00 11.3 16 Sudeste 30 Este 0 -- -- 76
2020-03-18 11:00:00 10.5 14 Este 29 Este 0 -- -- 80
2020-03-18 10:00:00 9.2 14 Este 31 Sudeste 0 -- -- 84
2020-03-18 09:00:00 8.6 15 Este 29 Este 0 -- -- 86
2020-03-18 08:00:00 8 10 Este 26 Sudeste 0 -- -- 87
2020-03-18 07:00:00 8 19 Este 33 Este 0 -- -- 86
2020-03-18 06:00:00 7.8 14 Este 24 Sudeste 0 -- -- 86
2020-03-18 05:00:00 7.7 4 Sudoeste 13 Sudeste 0 -- -- 86
2020-03-18 04:00:00 7.7 7 Sudeste 15 Sudeste 0 -- -- 86
2020-03-18 03:00:00 7.1 3 Oeste 8 Noroeste 0 -- -- 90
2020-03-18 02:00:00 7.8 0 Calma 8 Nordeste 0 -- -- 89
2020-03-18 01:00:00 8.6 4 Este 21 Este 0 -- -- 88
2020-03-18 00:00:00 8.8 7 Sudeste 12 Sudeste 0 -- -- 88
2020-03-17 23:00:00 9.7 4 Sudeste 17 Este 0 -- -- 84
2020-03-17 22:00:00 10.2 6 Este 23 Este 0 -- -- 84
2020-03-17 21:00:00 11.4 13 Este 33 Sudeste 0 -- -- 81
2020-03-17 20:00:00 11.6 10 Este 22 Sudeste 0 -- -- 85
2020-03-17 19:00:00 11.8 7 Nordeste 26 Nordeste 0 -- -- 81
2020-03-17 18:00:00 12.2 16 Nordeste 29 Este 0 -- -- 76
2020-03-17 17:00:00 13.4 17 Este 38 Este 0 -- -- 75
2020-03-17 16:00:00 14.4 23 Este 45 Este 0 -- -- 70
2020-03-17 15:00:00 15 22 Este 44 Este 0 -- -- 71
2020-03-17 14:00:00 13.3 23 Este 45 Este 0 -- -- 76
2020-03-17 13:00:00 12.8 28 Este 47 Este 0 -- -- 77
2020-03-17 12:00:00 11.8 23 Este 41 Sudeste 0 -- -- 75
2020-03-17 11:00:00 10.3 21 Este 34 Este 0 -- -- 81
2020-03-17 10:00:00 8.7 10 Este 22 Este 0 -- -- 88
2020-03-17 09:00:00 7.8 10 Este 18 Este 0 -- -- 94
2020-03-17 08:00:00 6.9 8 Este 15 Este 0 -- -- 95
2020-03-17 07:00:00 6.1 4 Este 12 Este 0 -- -- 95
2020-03-17 06:00:00 5.6 7 Este 18 Este 0 -- -- 95
2020-03-17 05:00:00 4.6 8 Este 21 Nordeste 0 -- -- 94
2020-03-17 04:00:00 3.1 5 Nordeste 12 Nordeste 0 -- -- 95
2020-03-17 03:00:00 1.9 3 Norte 6 Norte 0 -- -- 91
2020-03-17 02:00:00 1.9 0 Calma 3 Norte 0 -- -- 91
2020-03-17 01:00:00 1.7 2 Noroeste 6 Noroeste 0 -- -- 90
2020-03-17 00:00:00 2.2 0 Calma 4 Nordeste 0 -- -- 88
2020-03-16 23:00:00 2.8 0 Calma 8 Norte 0 -- -- 86
2020-03-16 22:00:00 3.6 0 Calma 5 Norte 0 -- -- 85
2020-03-16 21:00:00 4 0 Calma 11 Este 0 -- -- 85
2020-03-16 20:00:00 5.4 0 Calma 13 Sur 0 -- -- 78
2020-03-16 19:00:00 6.5 10 Sur 18 Sur 0 -- -- 77
2020-03-16 18:00:00 8.2 12 Sudeste 19 Sur 0 -- -- 62
2020-03-16 17:00:00 9.3 13 Sudeste 24 Sudeste 0 -- -- 57
2020-03-16 16:00:00 9.5 10 Sur 23 Sur 0 -- -- 60
2020-03-16 15:00:00 9.1 13 Sur 30 Sur 0 -- -- 65
2020-03-16 14:00:00 7.7 17 Sudoeste 30 Sudoeste 0 -- -- 72
2020-03-16 13:00:00 6.5 15 Sur 28 Sur 0 -- -- 73
2020-03-16 12:00:00 6 14 Sur 27 Sur 0 -- -- 78
2020-03-16 11:00:00 4.5 19 Sur 28 Sur 0 -- -- 87
2020-03-16 10:00:00 3.4 20 Sur 27 Sur 0 -- -- 93
2020-03-16 09:00:00 3.7 19 Sur 25 Sur 0 -- -- 96
2020-03-16 08:00:00 3 19 Sur 25 Sur 1 -- -- 95
2020-03-16 07:00:00 3.9 8 Sudoeste 32 Sudoeste 0.6 -- -- 90
2020-03-16 06:00:00 6.4 17 Oeste 37 Oeste 0.2 -- -- 88
2020-03-16 05:00:00 8.3 17 Sudoeste 36 Sudoeste 1.4 -- -- 93
2020-03-16 04:00:00 9.7 18 Sur 30 Sur 4.8 -- -- 96
2020-03-16 03:00:00 9.5 10 Sur 22 Sudeste 0 -- -- 93
2020-03-16 02:00:00 9.6 14 Sudeste 24 Sur 2.8 -- -- 91
2020-03-16 01:00:00 10.2 7 Sudoeste 13 Sudoeste 0.4 -- -- 85
2020-03-16 00:00:00 10.5 5 Sudeste 9 Sudeste 0 -- -- 84
2020-03-15 23:00:00 11.2 3 Sur 23 Sudoeste 0.2 -- -- 81
2020-03-15 22:00:00 12.4 9 Sudoeste 26 Sur 0 -- -- 70
2020-03-15 21:00:00 11.1 6 Sur 20 Este 0 -- -- 77
2020-03-15 20:00:00 12.3 12 Este 25 Este 0 -- -- 72
2020-03-15 19:00:00 13 3 Este 39 Noroeste 0 -- -- 75
2020-03-15 18:00:00 15 18 Noroeste 39 Oeste 0 -- -- 60
2020-03-15 17:00:00 19.1 13 Oeste 29 Sur 0 -- -- 48
2020-03-15 16:00:00 20 15 Sur 27 Sur 0 -- -- 54
2020-03-15 15:00:00 19.7 15 Sudeste 28 Sudeste 0 -- -- 55
2020-03-15 14:00:00 19.1 14 Sur 24 Sudeste 0 -- -- 59
2020-03-15 13:00:00 18.2 14 Sudeste 24 Sudeste 0 -- -- 63
2020-03-15 12:00:00 15.1 12 Sudeste 21 Este 0 -- -- 73
2020-03-15 11:00:00 12.5 14 Sudeste 23 Sudeste 0 -- -- 85
2020-03-15 10:00:00 10.2 13 Sudeste 22 Sudeste 0 -- -- 93
2020-03-15 09:00:00 8.9 13 Sudeste 24 Este 0 -- -- 94
2020-03-15 08:00:00 8.4 8 Sudeste 14 Sudeste 0 -- -- 94
2020-03-15 07:00:00 7.6 4 Sudeste 8 Sudeste 0 -- -- 92
2020-03-15 06:00:00 7.8 2 Sur 8 Sudeste 0 -- -- 88
2020-03-15 05:00:00 8.6 4 Este 10 Sudeste 0 -- -- 88
2020-03-15 04:00:00 8.7 0 Calma 8 Sudeste 0 -- -- 86
2020-03-15 03:00:00 9.1 3 Sudeste 10 Sudeste 0 -- -- 86
2020-03-15 02:00:00 9 3 Sur 7 Sur 0 -- -- 83
2020-03-15 01:00:00 9.4 0 Calma 5 Sudeste 0 -- -- 75
2020-03-15 00:00:00 9.2 2 Noroeste 5 Noroeste 0 -- -- 71
2020-03-14 23:00:00 10.2 3 Norte 7 Noroeste 0 -- -- 70
2020-03-14 22:00:00 11.9 3 Noroeste 8 Noroeste 0 -- -- 64
2020-03-14 21:00:00 14.6 0 Calma 4 Noroeste 0 -- -- 59
2020-03-14 20:00:00 17.3 0 Calma 7 Sur 0 -- -- 51
2020-03-14 19:00:00 19.8 5 Sur 10 Sur 0 -- -- 47
2020-03-14 18:00:00 22.1 9 Sur 14 Sur 0 -- -- 37
2020-03-14 17:00:00 22.7 7 Sudeste 17 Sur 0 -- -- 37
2020-03-14 16:00:00 21.8 5 Sudoeste 15 Sur 0 -- -- 44
2020-03-14 15:00:00 21.1 6 Sur 17 Sur 0 -- -- 48
2020-03-14 14:00:00 19.9 9 Sur 18 Sur 0 -- -- 52
2020-03-14 13:00:00 18.1 6 Sur 14 Sudeste 0 -- -- 55
2020-03-14 12:00:00 15.3 4 Sudeste 13 Este 0 -- -- 62
2020-03-14 11:00:00 12.5 3 Este 10 Este 0 -- -- 70
2020-03-14 10:00:00 10.4 2 Nordeste 9 Sur 0 -- -- 84
2020-03-14 09:00:00 7.3 4 Noroeste 9 Noroeste 0 -- -- 92
2020-03-14 08:00:00 5.9 7 Noroeste 12 Norte 0 -- -- 89
2020-03-14 07:00:00 6 0 Calma 6 Noroeste 0 -- -- 86
2020-03-14 06:00:00 7 3 Noroeste 5 Norte 0 -- -- 87
2020-03-14 05:00:00 7.2 0 Calma 7 Este 0 -- -- 88
2020-03-14 04:00:00 7.6 2 Noroeste 4 Noroeste 0 -- -- 85
2020-03-14 03:00:00 7.8 2 Noroeste 5 Noroeste 0 -- -- 83
2020-03-14 02:00:00 8.9 0 Calma 3 Sudeste 0 -- -- 79
2020-03-14 01:00:00 10.3 0 Calma 4 Este 0 -- -- 78
2020-03-14 00:00:00 10.8 0 Calma 9 Este 0 -- -- 76
2020-03-13 23:00:00 11.7 2 Este 9 Sur 0 -- -- 74
2020-03-13 22:00:00 12.8 3 Sudeste 13 Este 0 -- -- 70
2020-03-13 21:00:00 14.2 3 Sur 17 Este 0 -- -- 65
2020-03-13 20:00:00 15.7 8 Este 21 Sudeste 0 -- -- 61
2020-03-13 19:00:00 18.6 12 Este 23 Sudeste 0 -- -- 52
2020-03-13 18:00:00 21.4 14 Sudeste 24 Sur 0 -- -- 43
2020-03-13 17:00:00 22.4 12 Sudeste 25 Sudeste 0 -- -- 41
2020-03-13 16:00:00 22.5 15 Sudeste 26 Sudeste 0 -- -- 38
2020-03-13 15:00:00 22.1 13 Sudeste 26 Sur 0 -- -- 41
2020-03-13 14:00:00 21.1 13 Sudeste 29 Sudeste 0 -- -- 45
2020-03-13 13:00:00 20.1 13 Sur 24 Sudeste 0 -- -- 50
2020-03-13 12:00:00 18.5 15 Sur 24 Sudeste 0 -- -- 54
2020-03-13 11:00:00 16.8 15 Sudeste 24 Sur 0 -- -- 59
2020-03-13 10:00:00 14 13 Sur 22 Sudeste 0 -- -- 68
2020-03-13 09:00:00 9.8 0 Calma 9 Norte 0 -- -- 79
2020-03-13 08:00:00 8.5 0 Calma 4 Noroeste 0 -- -- 81
2020-03-13 07:00:00 8.8 0 Calma 4 Noroeste 0 -- -- 79
2020-03-13 06:00:00 9.7 0 Calma 4 Sudeste 0 -- -- 79
2020-03-13 05:00:00 10.4 0 Calma 6 Noroeste 0 -- -- 76
2020-03-13 04:00:00 10.7 0 Calma 5 Noroeste 0 -- -- 74
2020-03-13 03:00:00 11.1 2 Noroeste 5 Noroeste 0 -- -- 73
2020-03-13 02:00:00 11 3 Este 7 Sur 0 -- -- 73
2020-03-13 01:00:00 12.7 2 Noroeste 5 Norte 0 -- -- 67
2020-03-13 00:00:00 13.3 0 Calma 7 Norte 0 -- -- 62
2020-03-12 23:00:00 14.6 3 Noroeste 8 Noroeste 0 -- -- 58
2020-03-12 22:00:00 16.5 0 Calma 6 Norte 0 -- -- 52
2020-03-12 21:00:00 18.5 5 Norte 11 Noroeste 0 -- -- 44
2020-03-12 20:00:00 20 0 Calma 6 Sudoeste 0 -- -- 41
2020-03-12 19:00:00 23.5 4 Sudoeste 12 Sudoeste 0 -- -- 36
2020-03-12 18:00:00 25.2 5 Sudoeste 13 Sudoeste 0 -- -- 33
2020-03-12 17:00:00 26.5 8 Sur 20 Sur 0 -- -- 30
2020-03-12 16:00:00 26.9 9 Sur 23 Sur 0 -- -- 29
2020-03-12 15:00:00 26.4 6 Sur 21 Sur 0 -- -- 30
2020-03-12 14:00:00 26.1 12 Sur 22 Sur 0 -- -- 36
2020-03-12 13:00:00 24 13 Sur 19 Sur 0 -- -- 41
2020-03-12 12:00:00 20.9 6 Sur 18 Sur 0 -- -- 51
2020-03-12 11:00:00 16 5 Sur 9 Sur 0 -- -- 66
2020-03-12 10:00:00 12.3 0 Calma 4 Norte 0 -- -- 70
2020-03-12 09:00:00 9.2 3 Norte 6 Norte 0 -- -- 78
2020-03-12 08:00:00 6.5 5 Noroeste 9 Norte 0 -- -- 80
2020-03-12 07:00:00 6.4 2 Norte 9 Noroeste 0 -- -- 79
2020-03-12 06:00:00 6.7 6 Norte 8 Sur 0 -- -- 78
2020-03-12 05:00:00 7.5 3 Norte 9 Noroeste 0 -- -- 75
2020-03-12 04:00:00 7.6 0 Calma 10 Noroeste 0 -- -- 75
2020-03-12 03:00:00 7.5 8 Noroeste 11 Norte 0 -- -- 76
2020-03-12 02:00:00 8.7 2 Sur 9 Sudeste 0 -- -- 72
2020-03-12 01:00:00 10.3 5 Norte 7 Norte 0 -- -- 68
2020-03-12 00:00:00 11.3 3 Norte 8 Norte 0 -- -- 66
2020-03-11 23:00:00 12.2 6 Norte 8 Norte 0 -- -- 64
2020-03-11 22:00:00 13.6 0 Calma 9 Norte 0 -- -- 61
2020-03-11 21:00:00 16.3 0 Calma 5 Norte 0 -- -- 55
2020-03-11 20:00:00 19 3 Norte 5 Norte 0 -- -- 51
2020-03-11 19:00:00 23.5 3 Noroeste 6 Noroeste 0 -- -- 40
2020-03-11 18:00:00 25.7 5 Norte 13 Norte 0 -- -- 31
2020-03-11 17:00:00 25.8 5 Noroeste 14 Norte 0 -- -- 32
2020-03-11 16:00:00 25.5 6 Noroeste 14 Norte 0 -- -- 32
2020-03-11 15:00:00 24.9 2 Norte 13 Sudoeste 0 -- -- 36
2020-03-11 14:00:00 23.3 4 Norte 9 Sur 0 -- -- 39
2020-03-11 13:00:00 20.3 4 Noroeste 9 Norte 0 -- -- 50
2020-03-11 12:00:00 17.2 3 Norte 9 Norte 0 -- -- 60
2020-03-11 11:00:00 13.4 0 Calma 4 Nordeste 0 -- -- 72
2020-03-11 10:00:00 9.2 2 Sur 3 Sur 0 -- -- 82
2020-03-11 09:00:00 5.8 0 Calma 3 Noroeste 0 -- -- 89
2020-03-11 08:00:00 4.3 0 Calma 4 Noroeste 0 -- -- 85
2020-03-11 07:00:00 4.3 0 Calma 8 Noroeste 0 -- -- 84
2020-03-11 06:00:00 4.5 5 Noroeste 9 Noroeste 0 -- -- 83
2020-03-11 05:00:00 4.8 4 Noroeste 7 Noroeste 0 -- -- 81
2020-03-11 04:00:00 5.9 0 Calma 2 Nordeste 0 -- -- 78
2020-03-11 03:00:00 6.5 3 Norte 8 Noroeste 0 -- -- 76
2020-03-11 02:00:00 6.7 4 Noroeste 9 Norte 0 -- -- 76
2020-03-11 01:00:00 7.8 0 Calma 4 Noroeste 0 -- -- 70
2020-03-11 00:00:00 8.8 0 Calma 9 Norte 0 -- -- 68
2020-03-10 23:00:00 9.7 3 Norte 6 Norte 0 -- -- 66
2020-03-10 22:00:00 11.3 0 Calma 6 Norte 0 -- -- 61
2020-03-10 21:00:00 14.1 3 Norte 5 Norte 0 -- -- 52
2020-03-10 20:00:00 16.1 3 Norte 9 Noroeste 0 -- -- 48
2020-03-10 19:00:00 19.4 5 Noroeste 17 Noroeste 0 -- -- 42
2020-03-10 18:00:00 21.8 7 Noroeste 21 Noroeste 0 -- -- 36
2020-03-10 17:00:00 21.4 10 Noroeste 20 Noroeste 0 -- -- 37
2020-03-10 16:00:00 20.9 8 Noroeste 21 Noroeste 0 -- -- 36
2020-03-10 15:00:00 20.2 11 Noroeste 20 Noroeste 0 -- -- 38
2020-03-10 14:00:00 18.1 7 Noroeste 18 Norte 0 -- -- 41
2020-03-10 13:00:00 16.1 10 Noroeste 17 Noroeste 0 -- -- 44
2020-03-10 12:00:00 13.7 4 Sudoeste 13 Oeste 0 -- -- 50
2020-03-10 11:00:00 10.5 5 Sur 12 Sur 0 -- -- 63
2020-03-10 10:00:00 8.2 0 Calma 9 Norte 0 -- -- 67
2020-03-10 09:00:00 4.3 5 Noroeste 7 Noroeste 0 -- -- 78
2020-03-10 08:00:00 2.2 4 Noroeste 7 Noroeste 0 -- -- 81
2020-03-10 07:00:00 2 0 Calma 9 Norte 0 -- -- 78
2020-03-10 06:00:00 3 2 Norte 11 Norte 0 -- -- 75
2020-03-10 05:00:00 3 6 Norte 10 Noroeste 0 -- -- 76
2020-03-10 04:00:00 3.4 6 Norte 9 Noroeste 0 -- -- 74
2020-03-10 03:00:00 3.5 4 Noroeste 6 Noroeste 0 -- -- 71
2020-03-10 02:00:00 4.5 0 Calma 3 Sur 0 -- -- 68
2020-03-10 01:00:00 5.8 0 Calma 13 Norte 0 -- -- 65
2020-03-10 00:00:00 7.7 6 Norte 10 Noroeste 0 -- -- 59